createdAt,value
2022-11-16T00:04:08.090Z,99607.75
2022-11-16T00:09:26.941Z,99609.13
2022-11-16T00:14:34.309Z,99601.41
2022-11-16T00:19:37.837Z,99594.75
2022-11-16T00:24:41.313Z,99586.41
2022-11-16T00:29:46.452Z,99583.44
2022-11-16T00:34:50.417Z,99582.63
2022-11-16T00:39:54.337Z,99569.47
2022-11-16T00:44:59.297Z,99570.25
2022-11-16T00:50:02.902Z,99573.16
2022-11-16T00:55:07.616Z,99560.13
2022-11-16T01:00:14.770Z,99562.09
2022-11-16T01:05:18.435Z,99559.28
2022-11-16T01:10:23.589Z,99559.25
2022-11-16T01:15:29.378Z,99555.59
2022-11-16T01:20:32.930Z,99543.44
2022-11-16T01:25:36.509Z,99540.09
2022-11-16T01:30:41.526Z,99544.47
2022-11-16T01:35:46.657Z,99534.44
2022-11-16T01:40:51.781Z,99529.06
2022-11-16T01:45:58.105Z,99509.88
2022-11-16T01:51:02.550Z,99513.75
2022-11-16T01:56:08.348Z,99506.13
2022-11-16T02:01:33.969Z,99506.44
2022-11-16T02:06:55.310Z,99497.41
2022-11-16T02:12:10.947Z,99494.84
2022-11-16T02:17:22.521Z,99492.81
2022-11-16T02:22:37.033Z,99492.84
2022-11-16T02:28:06.436Z,99488.34
2022-11-16T02:33:13.329Z,99498.63
2022-11-16T02:38:20.428Z,99506.66
2022-11-16T02:43:30.817Z,99477.50
2022-11-16T02:48:38.280Z,99494.16
2022-11-16T02:53:51.649Z,99481.34
2022-11-16T02:58:56.625Z,99490.81
2022-11-16T03:04:04.611Z,99496.81
2022-11-16T03:09:12.016Z,99499.78
2022-11-16T03:14:18.752Z,99517.84
2022-11-16T03:19:29.982Z,99513.16
2022-11-16T03:24:35.660Z,99509.16
2022-11-16T03:29:42.629Z,99513.00
2022-11-16T03:34:53.243Z,99500.16
2022-11-16T03:39:57.778Z,99510.50
2022-11-16T03:45:01.554Z,99502.50
2022-11-16T03:50:07.656Z,99501.50
2022-11-16T03:55:11.353Z,99515.44
2022-11-16T04:00:15.619Z,99508.13
2022-11-16T04:05:39.266Z,99500.13
2022-11-16T04:11:01.376Z,99497.78
2022-11-16T04:16:26.822Z,99499.97
2022-11-16T04:21:47.937Z,99495.78
2022-11-16T04:27:12.824Z,99502.00
2022-11-16T04:32:34.896Z,99507.81
2022-11-16T04:37:52.539Z,99509.59
2022-11-16T04:43:05.729Z,99516.47
2022-11-16T04:48:13.015Z,99516.16
2022-11-16T04:53:18.290Z,99504.06
2022-11-16T04:58:26.945Z,99505.69
2022-11-16T05:03:30.858Z,99518.00
2022-11-16T05:08:36.092Z,99509.50
2022-11-16T05:13:41.179Z,99514.25
2022-11-16T05:18:45.000Z,99510.78
2022-11-16T05:24:07.455Z,99507.16
2022-11-16T05:29:11.362Z,99513.50
2022-11-16T05:34:15.018Z,99513.81
2022-11-16T05:39:20.347Z,99520.31
2022-11-16T05:44:26.578Z,99521.16
2022-11-16T05:49:30.214Z,99517.72
2022-11-16T05:54:37.048Z,99525.31
2022-11-16T05:59:40.577Z,99526.25
2022-11-16T06:04:44.103Z,99531.13
2022-11-16T06:09:49.115Z,99542.50
2022-11-16T06:14:56.787Z,99544.25
2022-11-16T06:20:00.320Z,99543.69
2022-11-16T06:25:07.709Z,99540.44
2022-11-16T06:30:15.837Z,99548.16
2022-11-16T06:35:19.350Z,99553.63
2022-11-16T06:40:24.375Z,99545.09
2022-11-16T06:45:28.240Z,99549.06
2022-11-16T06:50:34.254Z,99540.84
2022-11-16T06:55:39.119Z,99540.72
2022-11-16T07:00:42.657Z,99547.97
2022-11-16T07:05:47.618Z,99549.66
2022-11-16T07:10:56.450Z,99547.59
2022-11-16T07:21:39.466Z,99547.69
2022-11-16T07:26:50.035Z,99545.63
2022-11-16T07:31:57.067Z,99545.19
2022-11-16T07:37:32.652Z,99542.38
2022-11-16T07:42:37.652Z,99533.97
2022-11-16T07:47:55.288Z,99539.91
2022-11-16T07:53:18.579Z,99542.06
2022-11-16T07:58:24.053Z,99549.94
2022-11-16T08:03:28.293Z,99554.72
2022-11-16T08:08:32.416Z,99555.06
2022-11-16T08:13:39.349Z,99565.84
2022-11-16T08:18:43.460Z,99570.47
2022-11-16T08:23:47.100Z,99579.16
2022-11-16T08:28:53.789Z,99592.06
2022-11-16T08:34:01.736Z,99596.69
2022-11-16T08:39:06.165Z,99596.75
2022-11-16T08:44:12.224Z,99607.34
2022-11-16T08:49:20.325Z,99618.94
2022-11-16T08:54:24.083Z,99610.63
2022-11-16T08:59:29.289Z,99606.53
2022-11-16T09:04:37.618Z,99613.19
2022-11-16T09:09:41.065Z,99615.63
2022-11-16T09:14:45.792Z,99614.56
2022-11-16T09:19:49.129Z,99629.53
2022-11-16T09:24:52.556Z,99614.91
2022-11-16T09:29:57.334Z,99619.38
2022-11-16T09:35:00.760Z,99620.16
2022-11-16T09:40:04.516Z,99619.69
2022-11-16T09:45:14.702Z,99613.84
2022-11-16T09:50:27.354Z,99616.06
2022-11-16T09:55:34.895Z,99601.94
2022-11-16T10:00:42.594Z,99610.75
2022-11-16T10:05:49.619Z,99608.94
2022-11-16T10:11:00.311Z,99612.16
2022-11-16T10:16:07.849Z,99615.19
2022-11-16T10:21:32.976Z,99612.72
2022-11-16T10:26:40.346Z,99613.84
2022-11-16T10:32:03.133Z,99619.75
2022-11-16T10:37:08.490Z,99603.66
2022-11-16T10:42:13.363Z,99612.41
2022-11-16T10:47:22.134Z,99607.72
2022-11-16T10:52:26.040Z,99610.41
2022-11-16T10:57:55.555Z,99612.34
2022-11-16T11:03:00.412Z,99607.03
2022-11-16T11:08:05.483Z,99589.25
2022-11-16T11:13:23.852Z,99594.22
2022-11-16T11:18:30.256Z,99600.50
2022-11-16T11:23:42.436Z,99594.25
2022-11-16T11:28:49.061Z,99596.06
2022-11-16T11:33:55.934Z,99590.53
2022-11-16T11:39:01.014Z,99586.69
2022-11-16T11:44:05.888Z,99584.66
2022-11-16T11:49:16.236Z,99579.22
2022-11-16T11:54:23.401Z,99576.81
2022-11-16T11:59:27.699Z,99579.69
2022-11-16T12:05:04.498Z,99576.72
2022-11-16T12:10:14.567Z,99583.53
2022-11-16T12:15:37.126Z,99580.03
2022-11-16T12:20:47.074Z,99576.09
2022-11-16T12:25:57.222Z,99582.06
2022-11-16T12:31:12.190Z,99581.41
2022-11-16T12:36:25.475Z,99580.25
2022-11-16T12:42:02.028Z,99580.44
2022-11-16T12:47:10.925Z,99581.41
2022-11-16T12:52:27.603Z,99577.31
2022-11-16T12:57:37.538Z,99583.47
2022-11-16T13:02:51.289Z,99581.19
2022-11-16T13:08:00.066Z,99577.88
2022-11-16T13:13:34.835Z,99581.94
2022-11-16T13:18:31.624Z,99580.44
2022-11-16T13:23:46.043Z,99578.38
2022-11-16T13:28:55.269Z,99565.28
2022-11-16T13:34:01.161Z,99565.06
2022-11-16T13:39:06.922Z,99570.19
2022-11-16T13:44:30.814Z,99549.94
2022-11-16T13:49:36.584Z,99550.03
2022-11-16T13:54:45.803Z,99555.38
2022-11-16T13:59:51.990Z,99551.94
2022-11-16T14:04:57.769Z,99543.88
2022-11-16T14:10:05.554Z,99546.34
2022-11-16T14:15:15.645Z,99543.97
2022-11-16T14:20:31.340Z,99543.75
2022-11-16T14:25:40.690Z,99542.72
2022-11-16T14:30:56.312Z,99542.19
2022-11-16T14:36:00.358Z,99535.66
2022-11-16T14:41:06.770Z,99540.47
2022-11-16T14:46:17.145Z,99554.56
2022-11-16T14:51:23.489Z,99557.28
2022-11-16T14:56:28.426Z,99550.59
2022-11-16T15:01:34.528Z,99548.91
2022-11-16T15:06:42.067Z,99541.31
2022-11-16T15:12:07.235Z,99548.69
2022-11-16T15:17:17.257Z,99541.19
2022-11-16T15:22:20.810Z,99550.44
2022-11-16T15:27:36.367Z,99547.28
2022-11-16T15:32:42.646Z,99542.84
2022-11-16T15:37:46.256Z,99545.50
2022-11-16T15:42:52.137Z,99543.41
2022-11-16T15:47:55.975Z,99544.06
2022-11-16T15:52:59.841Z,99546.19
2022-11-16T15:58:16.373Z,99553.44
2022-11-16T16:03:23.662Z,99562.53
2022-11-16T16:08:30.650Z,99548.88
2022-11-16T16:13:37.546Z,99553.47
2022-11-16T16:18:43.285Z,99553.69
2022-11-16T16:23:47.385Z,99553.47
2022-11-16T16:28:52.613Z,99548.75
2022-11-16T16:33:56.715Z,99557.00
2022-11-16T16:39:00.150Z,99549.94
2022-11-16T16:44:06.259Z,99535.91
2022-11-16T16:49:09.791Z,99536.53
2022-11-16T16:54:14.489Z,99545.16
2022-11-16T16:59:19.534Z,99539.56
2022-11-16T17:04:22.996Z,99547.50
2022-11-16T17:09:26.754Z,99549.59
2022-11-16T17:14:31.751Z,99558.38
2022-11-16T17:19:35.307Z,99563.94
2022-11-16T17:24:38.914Z,99557.50
2022-11-16T17:29:43.977Z,99556.53
2022-11-16T17:34:47.495Z,99540.53
2022-11-16T17:39:50.999Z,99535.03
2022-11-16T17:44:55.909Z,99521.06
2022-11-16T17:49:59.549Z,99534.09
2022-11-16T17:55:03.084Z,99540.28
2022-11-16T18:00:09.628Z,99534.81
2022-11-16T18:05:13.731Z,99524.22
2022-11-16T18:10:19.400Z,99530.38
2022-11-16T18:15:29.247Z,99537.63
2022-11-16T18:20:36.616Z,99536.22
2022-11-16T18:25:40.141Z,99543.06
2022-11-16T18:30:45.000Z,99546.75
2022-11-16T18:35:48.547Z,99555.44
2022-11-16T18:41:04.119Z,99564.19
2022-11-16T18:46:09.553Z,99543.66
2022-11-16T18:51:13.673Z,99541.78
2022-11-16T18:56:17.666Z,99528.41
2022-11-16T19:01:23.775Z,99533.53
2022-11-16T19:06:27.369Z,99536.84
2022-11-16T19:11:31.012Z,99532.63
2022-11-16T19:16:36.067Z,99533.97
2022-11-16T19:21:39.900Z,99522.94
2022-11-16T19:26:43.460Z,99514.00
2022-11-16T19:31:48.224Z,99516.56
2022-11-16T19:36:51.607Z,99510.72
2022-11-16T19:41:54.965Z,99499.81
2022-11-16T19:46:59.689Z,99509.06
2022-11-16T19:52:03.141Z,99517.88
2022-11-16T19:57:06.589Z,99510.13
2022-11-16T20:02:11.374Z,99506.63
2022-11-16T20:07:17.942Z,99511.56
2022-11-16T20:12:21.446Z,99503.91
2022-11-16T20:17:26.252Z,99499.22
2022-11-16T20:22:30.014Z,99497.78
2022-11-16T20:27:33.457Z,99488.63
2022-11-16T20:32:38.211Z,99490.44
2022-11-16T20:37:42.631Z,99492.53
2022-11-16T20:42:46.124Z,99502.84
2022-11-16T20:47:50.983Z,99497.41
2022-11-16T20:52:54.452Z,99509.00
2022-11-16T20:57:58.158Z,99517.50
2022-11-16T21:03:02.957Z,99506.13
2022-11-16T21:08:06.781Z,99501.53
2022-11-16T21:13:31.166Z,99510.84
2022-11-16T21:18:36.081Z,99516.53
2022-11-16T21:23:40.415Z,99506.38
2022-11-16T21:28:44.688Z,99503.63
2022-11-16T21:33:49.677Z,99502.09
2022-11-16T21:38:53.629Z,99492.88
2022-11-16T21:43:57.275Z,99489.28
2022-11-16T21:49:02.153Z,99501.53
2022-11-16T21:54:05.909Z,99502.09
2022-11-16T21:59:09.261Z,99488.03
2022-11-16T22:04:31.351Z,99483.13
2022-11-16T22:09:34.749Z,99484.78
2022-11-16T22:14:38.099Z,99474.34
2022-11-16T22:19:42.926Z,99475.19
2022-11-16T22:24:46.464Z,99482.03
2022-11-16T22:29:49.892Z,99475.91
2022-11-16T22:34:54.632Z,99461.25
2022-11-16T22:39:58.128Z,99473.81
2022-11-16T22:45:01.554Z,99459.88
2022-11-16T22:50:07.272Z,99458.94
2022-11-16T22:55:10.789Z,99459.75
2022-11-16T23:00:15.184Z,99437.34
2022-11-16T23:05:19.937Z,99435.41
2022-11-16T23:10:23.390Z,99419.25
2022-11-16T23:15:44.319Z,99410.47
2022-11-16T23:21:06.449Z,99417.84
2022-11-16T23:26:31.039Z,99410.47
2022-11-16T23:31:34.474Z,99403.78
2022-11-16T23:36:39.228Z,99397.13
2022-11-16T23:42:00.143Z,99394.88
2022-11-16T23:47:03.592Z,99384.06
2022-11-16T23:52:08.465Z,99385.28
2022-11-16T23:57:13.052Z,99395.16
